Flight Track Log - Related Links

Times and Time Zones

All times are in EST time to prevent confusion due to time zone crossing. See the LJY630 flight status page for this flight to view local times or setup timezone preferences in your user account.

Time Position Orientation Groundspeed Altitude Reporting Facility
EST Latitude Longitude Course Direction KTS MPH feet Rate Location/Type
Tue 10:23:45 AM 39.7000 -75.6000 360° North 204 235 800  Level Philadelphia TRACON
Tue 10:23:57 AM 39.7000 -75.6000 320° Northwest 203 234 1,200 2,375 Climbing Philadelphia TRACON
Tue 10:24:33 AM 39.7297 -75.6325 339° North 204 235 2,700 2,327 Climbing New York Center
Tue 10:25:35 AM 39.7864 -75.6281 North 241 277 5,000 1,869 Climbing New York Center
Tue 10:26:35 AM 39.8600 -75.6117 10° North 247 284 6,500 2,237 Climbing New York Center
Tue 10:27:33 AM 39.9131 -75.6397 338° Northwest 220 253 9,400 2,218 Climbing New York Center
Tue 10:28:34 AM 39.9217 -75.7322 277° West 213 245 10,900 1,850 Climbing New York Center
Tue 10:29:33 AM 39.9203 -75.8133 269° West 242 278 13,100 2,430 Climbing New York Center
Tue 10:30:35 AM 39.9186 -75.8972 269° West 249 287 15,800 4,450 Climbing New York Center
Tue 10:31:33 AM 39.9169 -75.9864 269° West 249 287 22,000 1,916 Climbing New York Center
Tue 10:32:34 AM 39.9131 -76.0728 267° West 249 287 19,600 -150 Descending New York Center
Tue 10:33:33 AM 39.9128 -76.1703 270° West 254 292 21,700 1,200 Climbing New York Center
Tue 10:34:34 AM 39.9119 -76.2758 269° West 275 316 22,000 148 Climbing New York Center
Tue 10:35:35 AM 39.9175 -76.3844 274° West 295 339 22,000  Level New York Center
Tue 10:36:32 AM 39.9222 -76.4986 273° West 307 353 22,000  Level New York Center
Tue 10:37:33 AM 39.9189 -76.6119 268° West 313 360 22,000  Level New York Center
Tue 10:38:33 AM 39.9083 -76.7356 264° West 327 376 22,000  Level New York Center
Tue 10:39:33 AM 39.9000 -76.8594 265° West 340 391 22,000  Level New York Center
Tue 10:41:43 AM 39.8833 -77.1139 265° West 332 382 22,000  Level Washington Center
Tue 10:42:40 AM 39.8753 -77.2358 265° West 333 383 22,000  Level Cleveland Center
Tue 10:43:41 AM 39.8656 -77.3583 264° West 340 391 22,000  Level Cleveland Center
Tue 10:44:43 AM 39.8558 -77.4822 264° West 344 396 22,000 -97 Level Cleveland Center
Tue 10:45:45 AM 39.8467 -77.6064 265° West 348 400 21,800 -581 Descending Cleveland Center
Tue 10:46:47 AM 39.8364 -77.7292 264° West 344 396 20,800 -1,073 Descending Cleveland Center
Tue 10:47:48 AM 39.8250 -77.8678 264° West 325 374 19,600 -1,073 Descending Cleveland Center
Tue 10:48:50 AM 39.8147 -77.9858 264° West 328 377 18,600 -871 Descending Cleveland Center
Tue 10:49:52 AM 39.8053 -78.1086 264° West 339 390 17,800 -927 Descending Cleveland Center
Tue 10:50:53 AM 39.7956 -78.2286 264° West 338 389 16,700 -1,290 Descending Cleveland Center
Tue 10:51:39 AM 39.7881 -78.3272 264° West 329 379 15,500 -1,645 Descending Cleveland Center
Tue 10:51:55 AM 39.7844 -78.3622 262° West 330 380 15,000 -1,545 Descending Cleveland Center
Tue 10:52:45 AM 39.7758 -78.4589 263° West 317 365 13,800 -1,355 Descending Cleveland Center
Tue 10:52:57 AM 39.7756 -78.4750 269° West 319 367 13,600 -1,233 Descending Cleveland Center
Tue 10:53:58 AM 39.7672 -78.5689 263° West 312 359 12,300 -1,527 Descending Cleveland Center
Tue 10:54:47 AM 39.7567 -78.6736 263° West 297 342 10,800 -1,742 Descending Cleveland Center
Tue 10:55:00 AM 39.7564 -78.6933 269° West 296 341 10,500 -1,100 Descending Cleveland Center
Tue 10:55:47 AM 39.7494 -78.7622 263° West 241 277 9,700 -968 Descending Cleveland Center
Tue 10:56:02 AM 39.7492 -78.7808 269° West 262 302 9,500 -984 Descending Cleveland Center
Tue 10:56:48 AM 39.7431 -78.8428 263° West 225 259 8,700 -968 Descending Cleveland Center
Tue 10:57:04 AM 39.7419 -78.8611 265° West 236 272 8,500 -1,000 Descending Cleveland Center
Tue 10:57:48 AM 39.7444 -78.9272 273° West 221 254 7,700 -968 Descending Cleveland Center
Tue 10:58:06 AM 39.7458 -78.9403 278° West 225 259 7,500 -787 Descending Cleveland Center
Tue 10:58:49 AM 39.7528 -79.0069 278° West 227 261 6,900 -393 Descending Cleveland Center
Tue 10:59:07 AM 39.7544 -79.0158 284° West 227 261 7,100 -98 Climbing Cleveland Center
Tue 10:59:50 AM 39.7606 -79.0897 276° West 229 264 6,800 -95 Descending Cleveland Center
Tue 11:00:10 AM 39.7644 -79.1144 282° West 230 265 7,000 222 Climbing Cleveland Center
Tue 11:01:11 AM 39.7731 -79.1975 278° West 232 267 7,100  Climbing Cleveland Center
Tue 11:02:13 AM 39.7808 -79.2781 277° West 228 262 7,000 -435 Descending Cleveland Center
Tue 11:03:15 AM 39.7872 -79.3611 276° West 230 265 6,200 -629 Descending Cleveland Center
Tue 11:04:17 AM 39.7953 -79.4422 277° West 229 264 5,700 -488 Descending Cleveland Center
Tue 11:05:18 AM 39.8025 -79.5200 277° West 223 257 5,200 -341 Descending Cleveland Center
Tue 11:06:20 AM 39.8103 -79.6014 277° West 224 258 5,000 -97 Descending Cleveland Center
Tue 11:07:22 AM 39.8194 -79.6978 277° West 225 259 5,000  Level Cleveland Center
Tue 11:08:23 AM 39.8239 -79.7756 274° West 219 252 5,000 -293 Level Cleveland Center
Tue 11:09:25 AM 39.8225 -79.8517 269° West 213 245 4,400 -871 Descending Cleveland Center
Tue 11:10:27 AM 39.8064 -79.9258 254° West 222 255 3,200 -683 Descending Cleveland Center
Tue 11:11:28 AM 39.7494 -79.9381 189° South 215 247 3,000 -293 Descending Cleveland Center
Tue 11:12:30 AM 39.7053 -79.9289 171° South 186 214 2,600 -634 Descending Cleveland Center
Tue 11:13:31 AM 39.6669 -79.9214 171° South 158 182 1,700 -885 Descending Cleveland Center

Login

Don't have an account? Register now (free) for customized features, flight alerts, and more!